sensor_id;sensor_type;location;lat;lon;timestamp;P1;durP1;ratioP1;P2;durP2;ratioP2
59492;SDS011;45497;43.996;22.876;2023-06-22T00:01:51;9.17;;;5.50;;
59492;SDS011;45497;43.996;22.876;2023-06-22T00:04:16;10.23;;;5.87;;
59492;SDS011;45497;43.996;22.876;2023-06-22T00:06:42;7.47;;;5.05;;
59492;SDS011;45497;43.996;22.876;2023-06-22T00:09:08;10.17;;;5.53;;
59492;SDS011;45497;43.996;22.876;2023-06-22T00:11:35;10.27;;;6.00;;
59492;SDS011;45497;43.996;22.876;2023-06-22T00:14:01;9.77;;;5.93;;
59492;SDS011;45497;43.996;22.876;2023-06-22T00:16:27;9.60;;;5.68;;
59492;SDS011;45497;43.996;22.876;2023-06-22T00:18:53;10.50;;;6.00;;
59492;SDS011;45497;43.996;22.876;2023-06-22T00:21:18;10.55;;;5.72;;
59492;SDS011;45497;43.996;22.876;2023-06-22T00:23:45;8.43;;;5.40;;
59492;SDS011;45497;43.996;22.876;2023-06-22T00:26:11;9.77;;;5.90;;
59492;SDS011;45497;43.996;22.876;2023-06-22T00:28:36;8.70;;;5.73;;
59492;SDS011;45497;43.996;22.876;2023-06-22T00:31:02;10.80;;;5.97;;
59492;SDS011;45497;43.996;22.876;2023-06-22T00:33:27;8.90;;;5.97;;
59492;SDS011;45497;43.996;22.876;2023-06-22T00:35:53;9.88;;;6.05;;
59492;SDS011;45497;43.996;22.876;2023-06-22T00:38:19;11.40;;;6.40;;
59492;SDS011;45497;43.996;22.876;2023-06-22T00:40:45;9.93;;;6.10;;
59492;SDS011;45497;43.996;22.876;2023-06-22T00:43:10;9.40;;;5.83;;
59492;SDS011;45497;43.996;22.876;2023-06-22T00:45:36;10.87;;;5.70;;
59492;SDS011;45497;43.996;22.876;2023-06-22T00:48:01;9.45;;;5.85;;
59492;SDS011;45497;43.996;22.876;2023-06-22T00:50:31;10.95;;;5.93;;
59492;SDS011;45497;43.996;22.876;2023-06-22T00:52:59;8.48;;;5.60;;
59492;SDS011;45497;43.996;22.876;2023-06-22T00:55:33;9.77;;;5.78;;
59492;SDS011;45497;43.996;22.876;2023-06-22T00:58:02;11.15;;;5.80;;
59492;SDS011;45497;43.996;22.876;2023-06-22T01:00:30;12.30;;;5.72;;
59492;SDS011;45497;43.996;22.876;2023-06-22T01:02:57;8.55;;;5.82;;
59492;SDS011;45497;43.996;22.876;2023-06-22T01:05:23;10.13;;;6.10;;
59492;SDS011;45497;43.996;22.876;2023-06-22T01:13:53;10.57;;;6.63;;
59492;SDS011;45497;43.996;22.876;2023-06-22T01:16:07;11.83;;;6.60;;
59492;SDS011;45497;43.996;22.876;2023-06-22T01:18:38;11.23;;;6.27;;
59492;SDS011;45497;43.996;22.876;2023-06-22T01:21:07;9.90;;;6.32;;
59492;SDS011;45497;43.996;22.876;2023-06-22T01:29:03;10.25;;;6.50;;
59492;SDS011;45497;43.996;22.876;2023-06-22T01:31:31;10.02;;;6.75;;
59492;SDS011;45497;43.996;22.876;2023-06-22T01:34:00;10.35;;;6.40;;
59492;SDS011;45497;43.996;22.876;2023-06-22T01:36:28;10.32;;;6.55;;
59492;SDS011;45497;43.996;22.876;2023-06-22T01:38:55;9.25;;;7.15;;
59492;SDS011;45497;43.996;22.876;2023-06-22T01:41:24;11.25;;;7.07;;
59492;SDS011;45497;43.996;22.876;2023-06-22T01:43:52;14.57;;;7.60;;
59492;SDS011;45497;43.996;22.876;2023-06-22T01:46:19;13.38;;;7.65;;
59492;SDS011;45497;43.996;22.876;2023-06-22T01:48:46;10.65;;;7.20;;
59492;SDS011;45497;43.996;22.876;2023-06-22T01:51:13;10.68;;;7.10;;
59492;SDS011;45497;43.996;22.876;2023-06-22T01:53:39;10.93;;;7.13;;
59492;SDS011;45497;43.996;22.876;2023-06-22T01:56:05;11.07;;;7.35;;
59492;SDS011;45497;43.996;22.876;2023-06-22T01:58:31;10.93;;;6.93;;
59492;SDS011;45497;43.996;22.876;2023-06-22T02:01:02;11.93;;;7.18;;
59492;SDS011;45497;43.996;22.876;2023-06-22T02:03:35;12.93;;;6.90;;
59492;SDS011;45497;43.996;22.876;2023-06-22T02:06:06;12.35;;;6.85;;
59492;SDS011;45497;43.996;22.876;2023-06-22T02:08:41;10.90;;;7.00;;
59492;SDS011;45497;43.996;22.876;2023-06-22T02:11:12;13.13;;;6.65;;
59492;SDS011;45497;43.996;22.876;2023-06-22T02:13:40;10.60;;;6.88;;
59492;SDS011;45497;43.996;22.876;2023-06-22T02:16:08;11.30;;;6.90;;
59492;SDS011;45497;43.996;22.876;2023-06-22T02:18:38;11.02;;;6.93;;
59492;SDS011;45497;43.996;22.876;2023-06-22T02:21:05;12.32;;;6.88;;
59492;SDS011;45497;43.996;22.876;2023-06-22T02:23:31;11.95;;;7.32;;
59492;SDS011;45497;43.996;22.876;2023-06-22T02:26:01;13.50;;;7.32;;
59492;SDS011;45497;43.996;22.876;2023-06-22T02:28:27;12.32;;;7.40;;
59492;SDS011;45497;43.996;22.876;2023-06-22T02:30:53;13.52;;;8.32;;
59492;SDS011;45497;43.996;22.876;2023-06-22T02:33:18;16.10;;;8.80;;
59492;SDS011;45497;43.996;22.876;2023-06-22T02:35:44;17.13;;;10.02;;
59492;SDS011;45497;43.996;22.876;2023-06-22T02:38:13;15.30;;;9.35;;
59492;SDS011;45497;43.996;22.876;2023-06-22T02:40:39;19.33;;;10.52;;
59492;SDS011;45497;43.996;22.876;2023-06-22T02:43:04;19.15;;;10.70;;
59492;SDS011;45497;43.996;22.876;2023-06-22T02:45:30;16.50;;;10.20;;
59492;SDS011;45497;43.996;22.876;2023-06-22T02:47:55;19.93;;;9.93;;
59492;SDS011;45497;43.996;22.876;2023-06-22T02:50:21;20.25;;;11.18;;
59492;SDS011;45497;43.996;22.876;2023-06-22T02:52:47;18.60;;;11.97;;
59492;SDS011;45497;43.996;22.876;2023-06-22T02:55:12;21.95;;;12.32;;
59492;SDS011;45497;43.996;22.876;2023-06-22T02:57:38;24.10;;;12.50;;
59492;SDS011;45497;43.996;22.876;2023-06-22T03:00:09;18.58;;;12.65;;
59492;SDS011;45497;43.996;22.876;2023-06-22T03:02:43;17.23;;;12.30;;
59492;SDS011;45497;43.996;22.876;2023-06-22T03:05:10;16.77;;;13.27;;
59492;SDS011;45497;43.996;22.876;2023-06-22T03:07:39;18.77;;;14.07;;
59492;SDS011;45497;43.996;22.876;2023-06-22T03:10:05;22.45;;;15.52;;
59492;SDS011;45497;43.996;22.876;2023-06-22T03:12:32;18.88;;;13.65;;
59492;SDS011;45497;43.996;22.876;2023-06-22T03:14:57;22.87;;;16.83;;
59492;SDS011;45497;43.996;22.876;2023-06-22T03:17:23;36.38;;;27.50;;
59492;SDS011;45497;43.996;22.876;2023-06-22T03:19:48;30.40;;;23.03;;
59492;SDS011;45497;43.996;22.876;2023-06-22T03:22:14;30.47;;;23.27;;
59492;SDS011;45497;43.996;22.876;2023-06-22T03:24:40;23.85;;;17.20;;
59492;SDS011;45497;43.996;22.876;2023-06-22T03:27:05;24.55;;;19.25;;
59492;SDS011;45497;43.996;22.876;2023-06-22T03:29:31;22.83;;;15.07;;
59492;SDS011;45497;43.996;22.876;2023-06-22T03:31:56;22.10;;;16.17;;
59492;SDS011;45497;43.996;22.876;2023-06-22T03:34:22;30.33;;;16.52;;
59492;SDS011;45497;43.996;22.876;2023-06-22T03:36:47;28.77;;;18.90;;
59492;SDS011;45497;43.996;22.876;2023-06-22T03:39:13;23.43;;;15.10;;
59492;SDS011;45497;43.996;22.876;2023-06-22T03:41:38;17.38;;;13.02;;
59492;SDS011;45497;43.996;22.876;2023-06-22T03:44:04;18.23;;;11.73;;
59492;SDS011;45497;43.996;22.876;2023-06-22T03:46:29;15.33;;;10.83;;
59492;SDS011;45497;43.996;22.876;2023-06-22T03:48:55;16.48;;;10.38;;
59492;SDS011;45497;43.996;22.876;2023-06-22T03:51:20;20.10;;;10.80;;
59492;SDS011;45497;43.996;22.876;2023-06-22T03:53:46;18.55;;;10.70;;
59492;SDS011;45497;43.996;22.876;2023-06-22T03:56:13;13.50;;;9.70;;
59492;SDS011;45497;43.996;22.876;2023-06-22T03:58:45;16.85;;;10.07;;
59492;SDS011;45497;43.996;22.876;2023-06-22T04:01:10;15.47;;;9.50;;
59492;SDS011;45497;43.996;22.876;2023-06-22T04:03:36;15.98;;;9.55;;
59492;SDS011;45497;43.996;22.876;2023-06-22T04:06:02;15.82;;;9.10;;
59492;SDS011;45497;43.996;22.876;2023-06-22T04:08:28;19.55;;;10.02;;
59492;SDS011;45497;43.996;22.876;2023-06-22T04:10:53;15.27;;;8.90;;
59492;SDS011;45497;43.996;22.876;2023-06-22T04:13:19;15.57;;;8.90;;
59492;SDS011;45497;43.996;22.876;2023-06-22T04:15:44;14.47;;;9.27;;
59492;SDS011;45497;43.996;22.876;2023-06-22T04:18:10;17.52;;;8.98;;
59492;SDS011;45497;43.996;22.876;2023-06-22T04:20:35;13.67;;;8.70;;
59492;SDS011;45497;43.996;22.876;2023-06-22T04:23:01;13.80;;;8.90;;
59492;SDS011;45497;43.996;22.876;2023-06-22T04:25:27;13.33;;;8.63;;
59492;SDS011;45497;43.996;22.876;2023-06-22T04:27:52;14.70;;;8.67;;
59492;SDS011;45497;43.996;22.876;2023-06-22T04:30:18;14.32;;;8.73;;
59492;SDS011;45497;43.996;22.876;2023-06-22T04:35:28;13.45;;;8.73;;
59492;SDS011;45497;43.996;22.876;2023-06-22T04:37:53;17.23;;;9.53;;
59492;SDS011;45497;43.996;22.876;2023-06-22T04:40:21;17.25;;;8.60;;
59492;SDS011;45497;43.996;22.876;2023-06-22T04:42:48;14.48;;;8.25;;
59492;SDS011;45497;43.996;22.876;2023-06-22T04:45:18;19.08;;;9.05;;
59492;SDS011;45497;43.996;22.876;2023-06-22T04:47:43;14.95;;;9.20;;
59492;SDS011;45497;43.996;22.876;2023-06-22T04:50:10;21.80;;;9.65;;
59492;SDS011;45497;43.996;22.876;2023-06-22T04:52:37;15.98;;;9.25;;
59492;SDS011;45497;43.996;22.876;2023-06-22T04:55:02;25.15;;;10.68;;
59492;SDS011;45497;43.996;22.876;2023-06-22T04:57:28;19.23;;;10.13;;
59492;SDS011;45497;43.996;22.876;2023-06-22T05:00:00;16.43;;;9.87;;
59492;SDS011;45497;43.996;22.876;2023-06-22T05:02:39;19.58;;;10.00;;
59492;SDS011;45497;43.996;22.876;2023-06-22T05:05:05;20.58;;;10.20;;
59492;SDS011;45497;43.996;22.876;2023-06-22T05:07:35;22.95;;;10.05;;
59492;SDS011;45497;43.996;22.876;2023-06-22T05:10:02;21.00;;;10.25;;
59492;SDS011;45497;43.996;22.876;2023-06-22T05:12:28;17.17;;;10.38;;
59492;SDS011;45497;43.996;22.876;2023-06-22T05:14:54;17.77;;;10.27;;
59492;SDS011;45497;43.996;22.876;2023-06-22T05:17:20;14.93;;;10.63;;
59492;SDS011;45497;43.996;22.876;2023-06-22T05:19:45;16.17;;;10.27;;
59492;SDS011;45497;43.996;22.876;2023-06-22T05:22:14;15.07;;;9.98;;
59492;SDS011;45497;43.996;22.876;2023-06-22T05:24:40;16.33;;;10.35;;
59492;SDS011;45497;43.996;22.876;2023-06-22T05:27:06;16.10;;;10.17;;
59492;SDS011;45497;43.996;22.876;2023-06-22T05:29:31;16.42;;;10.30;;
59492;SDS011;45497;43.996;22.876;2023-06-22T05:31:57;12.83;;;10.20;;
59492;SDS011;45497;43.996;22.876;2023-06-22T05:34:22;15.50;;;10.30;;
59492;SDS011;45497;43.996;22.876;2023-06-22T05:36:48;17.10;;;11.10;;
59492;SDS011;45497;43.996;22.876;2023-06-22T05:39:14;18.37;;;11.10;;
59492;SDS011;45497;43.996;22.876;2023-06-22T05:41:40;15.68;;;11.73;;
59492;SDS011;45497;43.996;22.876;2023-06-22T05:44:05;15.57;;;11.23;;
59492;SDS011;45497;43.996;22.876;2023-06-22T05:46:31;16.40;;;12.60;;
59492;SDS011;45497;43.996;22.876;2023-06-22T05:48:57;16.23;;;12.25;;
59492;SDS011;45497;43.996;22.876;2023-06-22T05:51:22;14.33;;;11.23;;
59492;SDS011;45497;43.996;22.876;2023-06-22T05:53:48;14.87;;;11.47;;
59492;SDS011;45497;43.996;22.876;2023-06-22T05:56:17;14.90;;;12.18;;
59492;SDS011;45497;43.996;22.876;2023-06-22T05:58:43;15.82;;;11.05;;
59492;SDS011;45497;43.996;22.876;2023-06-22T06:01:08;12.77;;;10.73;;
59492;SDS011;45497;43.996;22.876;2023-06-22T06:03:34;16.85;;;10.60;;
59492;SDS011;45497;43.996;22.876;2023-06-22T06:06:05;14.77;;;10.93;;
59492;SDS011;45497;43.996;22.876;2023-06-22T06:08:31;11.90;;;10.10;;
59492;SDS011;45497;43.996;22.876;2023-06-22T06:10:57;18.57;;;10.63;;
59492;SDS011;45497;43.996;22.876;2023-06-22T06:13:22;11.00;;;9.43;;
59492;SDS011;45497;43.996;22.876;2023-06-22T06:15:48;11.75;;;9.77;;
59492;SDS011;45497;43.996;22.876;2023-06-22T06:18:16;21.07;;;12.10;;
59492;SDS011;45497;43.996;22.876;2023-06-22T06:20:42;15.20;;;9.48;;
59492;SDS011;45497;43.996;22.876;2023-06-22T06:23:07;15.93;;;9.20;;
59492;SDS011;45497;43.996;22.876;2023-06-22T06:25:33;12.13;;;9.25;;
59492;SDS011;45497;43.996;22.876;2023-06-22T06:27:58;12.43;;;9.40;;
59492;SDS011;45497;43.996;22.876;2023-06-22T06:30:24;11.37;;;9.70;;
59492;SDS011;45497;43.996;22.876;2023-06-22T06:32:50;12.73;;;9.40;;
59492;SDS011;45497;43.996;22.876;2023-06-22T06:35:16;12.57;;;9.32;;
59492;SDS011;45497;43.996;22.876;2023-06-22T06:37:43;12.23;;;9.38;;
59492;SDS011;45497;43.996;22.876;2023-06-22T06:40:10;10.68;;;8.40;;
59492;SDS011;45497;43.996;22.876;2023-06-22T06:42:43;10.85;;;8.85;;
59492;SDS011;45497;43.996;22.876;2023-06-22T06:45:11;11.05;;;9.23;;
59492;SDS011;45497;43.996;22.876;2023-06-22T06:47:38;16.08;;;9.05;;
59492;SDS011;45497;43.996;22.876;2023-06-22T06:50:04;13.98;;;8.63;;
59492;SDS011;45497;43.996;22.876;2023-06-22T06:52:31;12.83;;;9.37;;
59492;SDS011;45497;43.996;22.876;2023-06-22T06:54:56;12.98;;;9.13;;
59492;SDS011;45497;43.996;22.876;2023-06-22T06:57:21;12.13;;;9.00;;
59492;SDS011;45497;43.996;22.876;2023-06-22T06:59:48;11.77;;;9.10;;
59492;SDS011;45497;43.996;22.876;2023-06-22T07:02:14;11.73;;;9.35;;
59492;SDS011;45497;43.996;22.876;2023-06-22T07:04:40;10.70;;;9.02;;
59492;SDS011;45497;43.996;22.876;2023-06-22T07:07:06;12.27;;;9.52;;
59492;SDS011;45497;43.996;22.876;2023-06-22T07:09:31;11.13;;;8.93;;
59492;SDS011;45497;43.996;22.876;2023-06-22T07:11:57;12.50;;;9.37;;
59492;SDS011;45497;43.996;22.876;2023-06-22T07:14:22;10.55;;;9.45;;
59492;SDS011;45497;43.996;22.876;2023-06-22T07:16:48;9.85;;;8.40;;
59492;SDS011;45497;43.996;22.876;2023-06-22T07:19:14;12.67;;;9.10;;
59492;SDS011;45497;43.996;22.876;2023-06-22T07:21:39;12.43;;;9.00;;
59492;SDS011;45497;43.996;22.876;2023-06-22T07:24:05;12.52;;;8.65;;
59492;SDS011;45497;43.996;22.876;2023-06-22T07:26:31;10.68;;;8.77;;
59492;SDS011;45497;43.996;22.876;2023-06-22T07:28:57;11.30;;;8.63;;
59492;SDS011;45497;43.996;22.876;2023-06-22T07:31:26;9.53;;;8.47;;
59492;SDS011;45497;43.996;22.876;2023-06-22T07:33:51;9.73;;;8.23;;
59492;SDS011;45497;43.996;22.876;2023-06-22T07:36:17;11.07;;;9.07;;
59492;SDS011;45497;43.996;22.876;2023-06-22T07:38:43;10.25;;;8.80;;
59492;SDS011;45497;43.996;22.876;2023-06-22T07:41:09;11.47;;;9.40;;
59492;SDS011;45497;43.996;22.876;2023-06-22T07:43:34;9.77;;;8.63;;
59492;SDS011;45497;43.996;22.876;2023-06-22T07:46:02;10.60;;;8.37;;
59492;SDS011;45497;43.996;22.876;2023-06-22T07:48:29;10.23;;;9.13;;
59492;SDS011;45497;43.996;22.876;2023-06-22T07:50:54;10.63;;;8.40;;
59492;SDS011;45497;43.996;22.876;2023-06-22T07:53:20;9.60;;;8.60;;
59492;SDS011;45497;43.996;22.876;2023-06-22T07:55:48;11.85;;;8.80;;
59492;SDS011;45497;43.996;22.876;2023-06-22T07:58:14;11.25;;;9.60;;
59492;SDS011;45497;43.996;22.876;2023-06-22T08:00:40;12.32;;;8.73;;
59492;SDS011;45497;43.996;22.876;2023-06-22T08:03:06;12.73;;;9.02;;
59492;SDS011;45497;43.996;22.876;2023-06-22T08:05:32;10.95;;;9.52;;
59492;SDS011;45497;43.996;22.876;2023-06-22T08:07:57;10.10;;;8.70;;
59492;SDS011;45497;43.996;22.876;2023-06-22T08:10:23;15.43;;;9.30;;
59492;SDS011;45497;43.996;22.876;2023-06-22T08:12:48;13.98;;;9.27;;
59492;SDS011;45497;43.996;22.876;2023-06-22T08:15:14;13.17;;;9.10;;
59492;SDS011;45497;43.996;22.876;2023-06-22T08:17:40;11.03;;;8.90;;
59492;SDS011;45497;43.996;22.876;2023-06-22T08:20:06;10.82;;;9.02;;
59492;SDS011;45497;43.996;22.876;2023-06-22T08:22:36;13.10;;;8.82;;
59492;SDS011;45497;43.996;22.876;2023-06-22T08:25:02;11.57;;;8.60;;
59492;SDS011;45497;43.996;22.876;2023-06-22T08:27:29;9.70;;;8.70;;
59492;SDS011;45497;43.996;22.876;2023-06-22T08:29:56;9.45;;;8.23;;
59492;SDS011;45497;43.996;22.876;2023-06-22T08:32:24;10.95;;;8.98;;
59492;SDS011;45497;43.996;22.876;2023-06-22T08:34:52;14.32;;;9.18;;
59492;SDS011;45497;43.996;22.876;2023-06-22T08:37:20;12.55;;;9.00;;
59492;SDS011;45497;43.996;22.876;2023-06-22T08:39:49;9.63;;;8.70;;
59492;SDS011;45497;43.996;22.876;2023-06-22T08:42:15;12.68;;;8.65;;
59492;SDS011;45497;43.996;22.876;2023-06-22T08:44:41;11.37;;;9.37;;
59492;SDS011;45497;43.996;22.876;2023-06-22T08:47:06;11.30;;;9.40;;
59492;SDS011;45497;43.996;22.876;2023-06-22T08:49:32;10.68;;;8.90;;
59492;SDS011;45497;43.996;22.876;2023-06-22T08:51:57;11.13;;;9.40;;
59492;SDS011;45497;43.996;22.876;2023-06-22T08:54:23;10.43;;;8.63;;
59492;SDS011;45497;43.996;22.876;2023-06-22T08:56:48;9.67;;;8.67;;
59492;SDS011;45497;43.996;22.876;2023-06-22T08:59:14;13.53;;;9.03;;
59492;SDS011;45497;43.996;22.876;2023-06-22T09:01:39;12.23;;;8.67;;
59492;SDS011;45497;43.996;22.876;2023-06-22T09:04:05;15.20;;;9.30;;
59492;SDS011;45497;43.996;22.876;2023-06-22T09:06:32;10.65;;;8.68;;
59492;SDS011;45497;43.996;22.876;2023-06-22T09:08:57;12.43;;;9.00;;
59492;SDS011;45497;43.996;22.876;2023-06-22T09:11:26;10.48;;;8.32;;
59492;SDS011;45497;43.996;22.876;2023-06-22T09:13:51;9.93;;;8.87;;
59492;SDS011;45497;43.996;22.876;2023-06-22T09:16:18;12.23;;;9.20;;
59492;SDS011;45497;43.996;22.876;2023-06-22T09:18:47;13.60;;;8.57;;
59492;SDS011;45497;43.996;22.876;2023-06-22T09:21:13;14.60;;;8.70;;
59492;SDS011;45497;43.996;22.876;2023-06-22T09:23:38;12.20;;;8.63;;
59492;SDS011;45497;43.996;22.876;2023-06-22T09:26:04;11.23;;;8.80;;
59492;SDS011;45497;43.996;22.876;2023-06-22T09:28:30;11.50;;;8.40;;
59492;SDS011;45497;43.996;22.876;2023-06-22T09:30:56;9.50;;;8.53;;
59492;SDS011;45497;43.996;22.876;2023-06-22T09:33:23;9.65;;;8.70;;
59492;SDS011;45497;43.996;22.876;2023-06-22T09:35:50;10.70;;;9.02;;
59492;SDS011;45497;43.996;22.876;2023-06-22T09:38:17;13.00;;;8.57;;
59492;SDS011;45497;43.996;22.876;2023-06-22T09:40:42;10.02;;;9.00;;
59492;SDS011;45497;43.996;22.876;2023-06-22T09:43:08;15.20;;;9.50;;
59492;SDS011;45497;43.996;22.876;2023-06-22T09:45:34;13.53;;;8.80;;
59492;SDS011;45497;43.996;22.876;2023-06-22T09:47:59;15.90;;;8.90;;
59492;SDS011;45497;43.996;22.876;2023-06-22T09:50:25;10.88;;;8.88;;
59492;SDS011;45497;43.996;22.876;2023-06-22T09:52:50;17.00;;;9.07;;
59492;SDS011;45497;43.996;22.876;2023-06-22T09:55:20;10.63;;;8.27;;
59492;SDS011;45497;43.996;22.876;2023-06-22T09:57:46;11.43;;;9.27;;
59492;SDS011;45497;43.996;22.876;2023-06-22T10:00:11;10.70;;;8.65;;
59492;SDS011;45497;43.996;22.876;2023-06-22T10:02:39;12.65;;;9.27;;
59492;SDS011;45497;43.996;22.876;2023-06-22T10:05:05;16.15;;;8.75;;
59492;SDS011;45497;43.996;22.876;2023-06-22T10:07:30;12.73;;;9.17;;
59492;SDS011;45497;43.996;22.876;2023-06-22T10:09:56;12.17;;;9.27;;
59492;SDS011;45497;43.996;22.876;2023-06-22T10:12:21;12.77;;;8.75;;
59492;SDS011;45497;43.996;22.876;2023-06-22T10:14:47;12.30;;;8.60;;
59492;SDS011;45497;43.996;22.876;2023-06-22T10:17:12;12.30;;;9.05;;
59492;SDS011;45497;43.996;22.876;2023-06-22T10:19:38;12.30;;;8.93;;
59492;SDS011;45497;43.996;22.876;2023-06-22T10:22:04;9.82;;;8.52;;
59492;SDS011;45497;43.996;22.876;2023-06-22T10:24:32;9.03;;;7.67;;
59492;SDS011;45497;43.996;22.876;2023-06-22T10:26:58;9.93;;;7.97;;
59492;SDS011;45497;43.996;22.876;2023-06-22T10:29:24;13.73;;;8.82;;
59492;SDS011;45497;43.996;22.876;2023-06-22T10:31:51;10.17;;;7.97;;
59492;SDS011;45497;43.996;22.876;2023-06-22T10:34:16;11.63;;;8.15;;
59492;SDS011;45497;43.996;22.876;2023-06-22T10:36:42;8.77;;;7.97;;
59492;SDS011;45497;43.996;22.876;2023-06-22T10:39:07;12.73;;;8.23;;
59492;SDS011;45497;43.996;22.876;2023-06-22T10:41:33;12.50;;;7.90;;
59492;SDS011;45497;43.996;22.876;2023-06-22T10:43:58;15.27;;;7.87;;
59492;SDS011;45497;43.996;22.876;2023-06-22T10:46:24;11.97;;;7.90;;
59492;SDS011;45497;43.996;22.876;2023-06-22T10:48:51;11.52;;;7.63;;
59492;SDS011;45497;43.996;22.876;2023-06-22T10:51:19;12.60;;;7.57;;
59492;SDS011;45497;43.996;22.876;2023-06-22T10:53:44;8.77;;;6.97;;
59492;SDS011;45497;43.996;22.876;2023-06-22T10:56:10;8.70;;;7.50;;
59492;SDS011;45497;43.996;22.876;2023-06-22T10:58:35;11.87;;;7.60;;
59492;SDS011;45497;43.996;22.876;2023-06-22T11:01:01;9.73;;;7.20;;
59492;SDS011;45497;43.996;22.876;2023-06-22T11:03:27;9.65;;;7.45;;
59492;SDS011;45497;43.996;22.876;2023-06-22T11:05:53;11.03;;;7.40;;
59492;SDS011;45497;43.996;22.876;2023-06-22T11:08:18;8.70;;;7.43;;
59492;SDS011;45497;43.996;22.876;2023-06-22T11:10:44;13.57;;;7.70;;
59492;SDS011;45497;43.996;22.876;2023-06-22T11:13:09;9.50;;;7.60;;
59492;SDS011;45497;43.996;22.876;2023-06-22T11:15:36;12.83;;;7.90;;
59492;SDS011;45497;43.996;22.876;2023-06-22T11:18:04;10.45;;;7.65;;
59492;SDS011;45497;43.996;22.876;2023-06-22T11:20:30;12.55;;;7.80;;
59492;SDS011;45497;43.996;22.876;2023-06-22T11:22:56;10.10;;;8.10;;
59492;SDS011;45497;43.996;22.876;2023-06-22T11:25:21;9.70;;;7.60;;
59492;SDS011;45497;43.996;22.876;2023-06-22T11:27:47;11.13;;;8.00;;
59492;SDS011;45497;43.996;22.876;2023-06-22T11:30:12;12.50;;;8.13;;
59492;SDS011;45497;43.996;22.876;2023-06-22T11:32:38;10.33;;;8.20;;
59492;SDS011;45497;43.996;22.876;2023-06-22T11:35:04;15.30;;;8.80;;
59492;SDS011;45497;43.996;22.876;2023-06-22T11:37:29;9.95;;;7.82;;
59492;SDS011;45497;43.996;22.876;2023-06-22T11:39:55;9.07;;;7.85;;
59492;SDS011;45497;43.996;22.876;2023-06-22T11:42:20;14.90;;;8.07;;
59492;SDS011;45497;43.996;22.876;2023-06-22T11:44:45;10.90;;;8.15;;
59492;SDS011;45497;43.996;22.876;2023-06-22T11:47:11;13.95;;;8.48;;
59492;SDS011;45497;43.996;22.876;2023-06-22T11:49:36;10.57;;;8.10;;
59492;SDS011;45497;43.996;22.876;2023-06-22T11:52:02;11.67;;;7.73;;
59492;SDS011;45497;43.996;22.876;2023-06-22T11:54:28;9.80;;;7.93;;
59492;SDS011;45497;43.996;22.876;2023-06-22T11:56:54;10.57;;;8.70;;
59492;SDS011;45497;43.996;22.876;2023-06-22T11:59:19;13.75;;;8.40;;
59492;SDS011;45497;43.996;22.876;2023-06-22T12:01:46;10.48;;;8.35;;
59492;SDS011;45497;43.996;22.876;2023-06-22T12:04:11;11.10;;;8.60;;
59492;SDS011;45497;43.996;22.876;2023-06-22T12:06:37;11.70;;;7.90;;
59492;SDS011;45497;43.996;22.876;2023-06-22T12:09:03;13.38;;;7.93;;
59492;SDS011;45497;43.996;22.876;2023-06-22T12:11:32;13.10;;;8.40;;
59492;SDS011;45497;43.996;22.876;2023-06-22T12:13:57;11.07;;;7.90;;
59492;SDS011;45497;43.996;22.876;2023-06-22T12:16:26;15.15;;;8.90;;
59492;SDS011;45497;43.996;22.876;2023-06-22T12:18:52;13.07;;;8.38;;
59492;SDS011;45497;43.996;22.876;2023-06-22T12:21:18;11.02;;;8.38;;
59492;SDS011;45497;43.996;22.876;2023-06-22T12:23:44;15.52;;;8.13;;
59492;SDS011;45497;43.996;22.876;2023-06-22T12:26:09;14.97;;;8.47;;
59492;SDS011;45497;43.996;22.876;2023-06-22T12:28:35;13.20;;;8.20;;
59492;SDS011;45497;43.996;22.876;2023-06-22T12:31:00;11.73;;;7.83;;
59492;SDS011;45497;43.996;22.876;2023-06-22T12:33:26;11.00;;;8.20;;
59492;SDS011;45497;43.996;22.876;2023-06-22T12:35:51;10.37;;;7.80;;
59492;SDS011;45497;43.996;22.876;2023-06-22T12:38:17;11.87;;;7.70;;
59492;SDS011;45497;43.996;22.876;2023-06-22T12:40:42;11.30;;;8.03;;
59492;SDS011;45497;43.996;22.876;2023-06-22T12:43:08;11.63;;;8.23;;
59492;SDS011;45497;43.996;22.876;2023-06-22T12:45:33;13.23;;;7.88;;
59492;SDS011;45497;43.996;22.876;2023-06-22T12:47:59;14.18;;;8.30;;
59492;SDS011;45497;43.996;22.876;2023-06-22T12:50:25;14.73;;;8.27;;
59492;SDS011;45497;43.996;22.876;2023-06-22T12:52:51;10.80;;;7.70;;
59492;SDS011;45497;43.996;22.876;2023-06-22T12:55:16;10.02;;;8.05;;
59492;SDS011;45497;43.996;22.876;2023-06-22T12:57:42;13.05;;;7.50;;
59492;SDS011;45497;43.996;22.876;2023-06-22T13:00:07;10.43;;;7.97;;
59492;SDS011;45497;43.996;22.876;2023-06-22T13:02:35;16.88;;;8.35;;
59492;SDS011;45497;43.996;22.876;2023-06-22T13:05:01;10.87;;;8.47;;
59492;SDS011;45497;43.996;22.876;2023-06-22T13:07:27;10.05;;;7.97;;
59492;SDS011;45497;43.996;22.876;2023-06-22T13:09:52;12.73;;;8.03;;
59492;SDS011;45497;43.996;22.876;2023-06-22T13:12:19;9.73;;;7.90;;
59492;SDS011;45497;43.996;22.876;2023-06-22T13:14:48;10.55;;;6.88;;
59492;SDS011;45497;43.996;22.876;2023-06-22T13:17:14;9.30;;;7.30;;
59492;SDS011;45497;43.996;22.876;2023-06-22T13:19:39;8.80;;;7.50;;
59492;SDS011;45497;43.996;22.876;2023-06-22T13:22:05;9.87;;;7.20;;
59492;SDS011;45497;43.996;22.876;2023-06-22T13:24:50;7.90;;;7.05;;
59492;SDS011;45497;43.996;22.876;2023-06-22T13:27:15;8.00;;;7.20;;
59492;SDS011;45497;43.996;22.876;2023-06-22T13:29:41;10.67;;;6.97;;
59492;SDS011;45497;43.996;22.876;2023-06-22T13:32:06;8.93;;;6.70;;
59492;SDS011;45497;43.996;22.876;2023-06-22T13:34:32;7.53;;;6.75;;
59492;SDS011;45497;43.996;22.876;2023-06-22T13:36:57;7.60;;;6.70;;
59492;SDS011;45497;43.996;22.876;2023-06-22T13:39:23;9.55;;;6.70;;
59492;SDS011;45497;43.996;22.876;2023-06-22T13:41:48;9.25;;;7.07;;
59492;SDS011;45497;43.996;22.876;2023-06-22T13:44:14;9.98;;;7.05;;
59492;SDS011;45497;43.996;22.876;2023-06-22T13:46:39;12.30;;;7.07;;
59492;SDS011;45497;43.996;22.876;2023-06-22T13:49:05;7.47;;;6.53;;
59492;SDS011;45497;43.996;22.876;2023-06-22T13:51:30;9.23;;;7.00;;
59492;SDS011;45497;43.996;22.876;2023-06-22T13:53:56;10.38;;;6.70;;
59492;SDS011;45497;43.996;22.876;2023-06-22T13:56:21;8.02;;;6.85;;
59492;SDS011;45497;43.996;22.876;2023-06-22T13:58:47;9.93;;;6.60;;
59492;SDS011;45497;43.996;22.876;2023-06-22T14:01:12;9.23;;;6.82;;
59492;SDS011;45497;43.996;22.876;2023-06-22T14:03:38;18.02;;;7.80;;
59492;SDS011;45497;43.996;22.876;2023-06-22T14:06:03;12.10;;;7.00;;
59492;SDS011;45497;43.996;22.876;2023-06-22T14:08:29;16.93;;;7.40;;
59492;SDS011;45497;43.996;22.876;2023-06-22T14:10:54;11.87;;;7.13;;
59492;SDS011;45497;43.996;22.876;2023-06-22T14:13:20;8.67;;;6.73;;
59492;SDS011;45497;43.996;22.876;2023-06-22T14:15:45;9.30;;;7.38;;
59492;SDS011;45497;43.996;22.876;2023-06-22T14:18:13;10.32;;;6.93;;
59492;SDS011;45497;43.996;22.876;2023-06-22T14:20:39;9.73;;;6.65;;
59492;SDS011;45497;43.996;22.876;2023-06-22T14:23:05;9.13;;;6.72;;
59492;SDS011;45497;43.996;22.876;2023-06-22T14:25:30;11.37;;;6.47;;
59492;SDS011;45497;43.996;22.876;2023-06-22T14:27:56;13.30;;;6.73;;
59492;SDS011;45497;43.996;22.876;2023-06-22T14:30:21;9.80;;;6.50;;